DW9181 Weather Reports


time (UTC)temp
C
wind
direction
speed
KPH
gust
KPH
rain 1hr
cm
rain 24hr
cm
rain mn
cm
humidity
%
barometer
mb
20260507151543 12 55 3.2 6.4 0.00 0.25 0.00 49 992.6
20260507150041 12 355 1.6 4.8 0.00 0.25 0.00 53 992.8
20260507144549 12 329 1.6 6.4 0.00 0.30 0.00 53 993.1
20260507143039 13 10 3.2 6.4 0.00 0.30 0.00 53 993.1
20260507141537 12 42 4.8 9.7 0.00 0.30 0.00 52 993.3
20260507140035 12 49 3.2 8.0 0.00 0.30 0.00 54 993.4
20260507134534 11 5 4.8 8.0 0.00 0.41 0.00 57 993.6
20260507133033 11 360 0.0 6.4 0.00 0.41 0.00 60 993.9
20260507131533 11 9 0.0 3.2 0.00 0.41 0.00 63 994.0
20260507130039 10 9 1.6 8.0 0.00 0.41 0.00 59 994.0
20260507124531 10 319 1.6 4.8 0.00 0.48 0.00 60 994.1
20260507123039 10 334 1.6 4.8 0.00 0.48 0.00 61 993.8
20260507121528 10 360 0.0 4.8 0.00 0.48 0.00 64 993.8
20260507120028 10 341 3.2 4.8 0.00 0.48 0.00 62 993.6
20260507114527 10 321 1.6 4.8 0.00 0.53 0.00 61 993.8
20260507113029 10 338 0.0 0.0 0.00 0.53 0.00 62 993.8
20260507111524 10 338 0.0 0.0 0.00 0.53 0.00 63 993.7
20260507110029 10 332 0.0 0.0 0.00 0.53 0.00 64 993.6
20260507104520 10 332 0.0 0.0 0.00 0.56 0.00 70 993.4
20260507103018 10 332 0.0 0.0 0.00 0.56 0.00 68 993.0
20260507101518 10 332 0.0 0.0 0.00 0.56 0.00 65 993.0
20260507100015 10 332 0.0 0.0 0.00 0.56 0.00 64 992.7
20260507094515 10 332 0.0 3.2 0.00 0.56 0.00 65 992.6
20260507093013 11 332 1.6 3.2 0.00 0.56 0.00 65 992.7
20260507091512 11 332 1.6 4.8 0.00 0.56 0.00 62 992.8
20260507090012 11 332 1.6 4.8 0.00 0.56 0.00 62 992.7
20260507084513 11 351 3.2 4.8 0.00 0.56 0.00 63 992.4
20260507083006 11 30 0.0 3.2 0.00 0.56 0.00 67 992.5
20260507081505 11 323 0.0 4.8 0.00 0.56 0.00 70 992.3
20260507080003 11 13 0.0 3.2 0.00 0.56 0.00 72 992.2
20260507074501 11 19 0.0 6.4 0.00 0.56 0.00 71 992.0
20260507073100 11 45 3.2 4.8 0.00 0.56 0.00 71 991.8
20260507071609 11 342 1.6 4.8 0.00 0.56 0.00 71 992.0
20260507071501 11 5 1.6 4.8 0.00 0.56 0.00 71 992.0
20260507070058 11 336 3.2 6.4 0.00 0.56 0.00 72 992.0
20260507064610 11 315 1.6 4.8 0.00 0.56 0.00 72 992.2
20260507063057 12 336 3.2 6.4 0.00 0.56 0.00 72 992.2
20260507061555 12 340 4.8 6.4 0.00 0.56 0.00 72 992.3
20260507060054 12 329 1.6 4.8 0.00 0.56 0.00 72 992.4
20260507054604 12 325 1.6 4.8 0.00 0.56 0.00 73 992.2
20260507053051 12 343 1.6 6.4 0.00 0.56 0.00 74 992.0
20260507051550 12 336 1.6 4.8 0.00 0.56 0.00 74 992.1
20260507050049 12 355 1.6 6.4 0.00 0.56 0.00 74 992.0
20260507044550 12 331 3.2 6.4 0.00 0.56 0.00 75 992.1
20260507043047 12 47 0.0 6.4 0.00 0.56 0.00 76 991.9
20260507041554 12 346 0.0 6.4 0.00 0.56 0.00 77 992.0
20260507040043 12 350 3.2 8.0 0.00 0.56 0.00 79 991.9
20260507034543 12 346 3.2 6.4 0.00 0.56 0.56 80 992.4
20260507033044 12 346 1.6 4.8 0.00 0.56 0.56 80 991.8
20260507031538 12 355 1.6 4.8 0.00 0.56 0.56 80 992.0
20260507030038 13 323 1.6 6.4 0.00 0.56 0.56 80 992.0
20260507024536 13 336 4.8 12.9 0.00 0.56 0.56 80 992.0
20260507023033 13 309 1.6 6.4 0.00 0.56 0.56 81 991.6
20260507021532 13 336 4.8 8.0 0.00 0.56 0.56 80 991.4
20260507020031 13 333 1.6 6.4 0.00 0.56 0.56 81 991.2
20260507014547 13 303 3.2 8.0 0.00 0.56 0.56 80 991.2
20260507013040 13 333 3.2 8.0 0.00 0.56 0.56 80 991.6
20260507011534 14 25 0.0 6.4 0.00 0.56 0.56 79 991.3
20260507010027 14 311 4.8 9.7 0.00 0.56 0.56 77 990.7
20260507004524 15 313 3.2 9.7 0.00 0.56 0.56 78 991.1
20260507003021 15 284 3.2 9.7 0.00 0.56 0.56 78 990.8
20260507001519 15 294 3.2 11.3 0.00 0.56 0.56 76 990.6
20260507000026 15 312 3.2 9.7 0.00 0.56 0.56 76 990.6
20260506234515 16 323 4.8 14.5 0.00 0.56 0.56 79 990.4
20260506233016 16 310 3.2 9.7 0.00 0.56 0.56 80 989.8
20260506231514 16 304 4.8 8.0 0.00 0.56 0.56 80 989.7
20260506230011 16 322 3.2 6.4 0.00 0.56 0.56 82 989.4
20260506224510 16 296 1.6 6.4 0.00 0.56 0.56 83 989.5
20260506223009 17 290 1.6 8.0 0.00 0.56 0.56 86 989.5
20260506221510 17 306 3.2 6.4 0.00 0.56 0.56 86 989.2
20260506220008 17 267 1.6 4.8 0.03 0.56 0.56 86 988.9
20260506214507 17 258 0.0 4.8 0.08 0.56 0.56 88 988.8
20260506213011 17 270 0.0 3.2 0.08 0.56 0.56 89 988.8
20260506211506 17 271 0.0 4.8 0.08 0.56 0.56 89 988.8
20260506210008 18 32 0.0 0.0 0.05 0.53 0.53 91 988.3
20260506204506 18 124 0.0 0.0 0.00 0.48 0.48 90 988.0
20260506203004 18 124 0.0 0.0 0.00 0.48 0.48 90 987.9
20260506201504 18 124 0.0 0.0 0.00 0.48 0.48 90 987.8
20260506200004 18 124 0.0 0.0 0.00 0.48 0.48 90 987.6
20260506194502 18 124 0.0 3.2 0.00 0.48 0.48 88 987.8
20260506193000 18 128 0.0 3.2 0.00 0.48 0.48 89 987.8
20260506191601 18 225 0.0 3.2 0.03 0.48 0.48 89 987.8
20260506190100 18 163 0.0 1.6 0.05 0.48 0.48 89 987.9
20260506184559 18 173 0.0 1.6 0.10 0.48 0.48 91 987.8
20260506183058 17 226 0.0 4.8 0.15 0.48 0.48 92 988.1
20260506181557 17 238 1.6 3.2 0.15 0.46 0.46 90 988.5
20260506180105 17 210 0.0 0.0 0.13 0.43 0.43 90 988.4
20260506174554 17 209 0.0 3.2 0.08 0.38 0.38 89 988.4
20260506173111 17 209 1.6 8.0 0.03 0.33 0.33 86 988.5
20260506171600 18 230 1.6 6.4 0.00 0.30 0.30 83 988.1
20260506170053 18 182 1.6 9.7 0.00 0.30 0.30 82 987.9
20260506164552 18 148 1.6 3.2 0.00 0.30 0.30 82 987.9
20260506163051 18 209 0.0 3.2 0.00 0.30 0.30 84 987.9
20260506161556 18 171 1.6 8.0 0.00 0.30 0.30 84 988.0
20260506160104 17 115 1.6 8.0 0.00 0.30 0.30 86 987.9
20260506154549 16 138 1.6 8.0 0.00 0.30 0.30 87 987.9
20260506153048 16 210 1.6 8.0 0.00 0.30 0.30 88 988.1